createdAt,value
2022-12-09T00:02:39.561Z,1.20
2022-12-09T00:05:41.519Z,1.10
2022-12-09T00:08:43.151Z,1.10
2022-12-09T00:11:44.576Z,1.10
2022-12-09T00:14:45.561Z,1.10
2022-12-09T00:17:46.893Z,1.10
2022-12-09T00:20:47.556Z,1.10
2022-12-09T00:23:50.318Z,1.10
2022-12-09T00:26:51.315Z,1.10
2022-12-09T00:29:52.656Z,1.10
2022-12-09T00:32:53.886Z,1.10
2022-12-09T00:35:55.122Z,1.10
2022-12-09T00:38:59.095Z,1.10
2022-12-09T00:42:00.106Z,1.10
2022-12-09T00:45:02.503Z,1.10
2022-12-09T00:48:04.005Z,1.10
2022-12-09T00:51:13.572Z,1.00
2022-12-09T00:54:15.040Z,1.00
2022-12-09T00:57:16.373Z,1.00
2022-12-09T01:00:18.331Z,1.00
2022-12-09T01:03:20.224Z,0.90
2022-12-09T01:06:25.564Z,0.90
2022-12-09T01:09:26.723Z,0.90
2022-12-09T01:12:27.724Z,0.90
2022-12-09T01:15:29.510Z,0.90
2022-12-09T01:18:31.065Z,0.90
2022-12-09T01:21:32.606Z,0.80
2022-12-09T01:24:33.718Z,0.80
2022-12-09T01:27:34.815Z,0.80
2022-12-09T01:30:35.453Z,0.80
2022-12-09T01:33:37.060Z,0.80
2022-12-09T01:36:37.925Z,0.80
2022-12-09T01:39:39.451Z,0.70
2022-12-09T01:42:41.066Z,0.70
2022-12-09T01:45:43.528Z,0.70
2022-12-09T01:48:47.343Z,0.70
2022-12-09T01:52:17.486Z,0.70
2022-12-09T01:55:19.679Z,0.70
2022-12-09T01:58:21.369Z,0.70
2022-12-09T02:01:26.217Z,0.70
2022-12-09T02:04:33.644Z,0.70
2022-12-09T02:07:35.492Z,0.70
2022-12-09T02:11:05.563Z,0.70
2022-12-09T02:14:27.867Z,0.70
2022-12-09T02:17:51.668Z,0.70
2022-12-09T02:21:12.432Z,0.70
2022-12-09T02:25:09.380Z,0.70
2022-12-09T02:28:27.242Z,0.70
2022-12-09T02:32:22.156Z,0.60
2022-12-09T02:35:35.326Z,0.60
2022-12-09T02:38:43.175Z,0.60
2022-12-09T02:41:49.584Z,0.50
2022-12-09T02:44:52.644Z,0.50
2022-12-09T02:48:01.361Z,0.50
2022-12-09T02:51:08.814Z,0.50
2022-12-09T02:54:17.727Z,0.50
2022-12-09T02:57:26.024Z,0.50
2022-12-09T03:00:28.982Z,0.50
2022-12-09T03:03:33.962Z,0.50
2022-12-09T03:06:46.801Z,0.50
2022-12-09T03:10:00.385Z,0.50
2022-12-09T03:13:14.140Z,0.50
2022-12-09T03:16:48.584Z,0.50
2022-12-09T03:19:59.602Z,0.50
2022-12-09T03:23:05.806Z,0.50
2022-12-09T03:26:07.425Z,0.50
2022-12-09T03:29:17.739Z,0.50
2022-12-09T03:32:25.411Z,0.50
2022-12-09T03:35:58.256Z,0.50
2022-12-09T03:39:02.203Z,0.50
2022-12-09T03:42:14.717Z,0.50
2022-12-09T03:45:19.780Z,0.50
2022-12-09T03:48:22.387Z,0.50
2022-12-09T03:52:17.336Z,0.50
2022-12-09T03:55:30.651Z,0.50
2022-12-09T03:58:35.879Z,0.50
2022-12-09T04:01:39.201Z,0.50
2022-12-09T04:04:42.692Z,0.50
2022-12-09T04:07:44.329Z,0.50
2022-12-09T04:10:47.017Z,0.50
2022-12-09T04:13:48.247Z,0.50
2022-12-09T04:16:49.154Z,0.50
2022-12-09T04:19:50.475Z,0.50
2022-12-09T04:22:51.668Z,0.50
2022-12-09T04:25:52.971Z,0.50
2022-12-09T04:28:54.355Z,0.50
2022-12-09T04:31:55.083Z,0.50
2022-12-09T04:34:56.700Z,0.50
2022-12-09T04:37:57.878Z,0.50
2022-12-09T04:41:01.003Z,0.60
2022-12-09T04:44:02.513Z,0.50
2022-12-09T04:47:04.676Z,0.60
2022-12-09T04:50:07.630Z,0.60
2022-12-09T04:53:09.033Z,0.60
2022-12-09T04:56:19.799Z,0.60
2022-12-09T04:59:21.072Z,0.60
2022-12-09T05:02:22.525Z,0.60
2022-12-09T05:05:23.630Z,0.60
2022-12-09T05:08:31.053Z,0.60
2022-12-09T05:11:33.010Z,0.60
2022-12-09T05:14:34.442Z,0.70
2022-12-09T05:17:35.769Z,0.70
2022-12-09T05:20:40.110Z,0.70
2022-12-09T05:23:41.756Z,0.70
2022-12-09T05:26:42.946Z,0.70
2022-12-09T05:29:43.853Z,0.70
2022-12-09T05:32:44.791Z,0.70
2022-12-09T05:35:52.689Z,0.70
2022-12-09T05:38:55.944Z,0.70
2022-12-09T05:41:57.187Z,0.70
2022-12-09T05:44:58.126Z,0.60
2022-12-09T05:47:59.143Z,0.60
2022-12-09T05:51:04.333Z,0.60
2022-12-09T05:54:07.316Z,0.60
2022-12-09T05:57:08.715Z,0.60
2022-12-09T06:00:10.992Z,0.60
2022-12-09T06:03:15.800Z,0.60
2022-12-09T06:06:20.763Z,0.60
2022-12-09T06:09:22.584Z,0.70
2022-12-09T06:12:23.930Z,0.60
2022-12-09T06:15:32.932Z,0.70
2022-12-09T06:18:35.351Z,0.60
2022-12-09T06:21:41.558Z,0.60
2022-12-09T06:24:42.825Z,0.60
2022-12-09T06:27:44.004Z,0.50
2022-12-09T06:30:45.342Z,0.50
2022-12-09T06:33:54.856Z,0.50
2022-12-09T06:36:57.808Z,0.50
2022-12-09T06:39:58.875Z,0.50
2022-12-09T06:43:00.296Z,0.50
2022-12-09T06:46:01.910Z,0.50
2022-12-09T06:49:03.586Z,0.50
2022-12-09T06:52:05.163Z,0.50
2022-12-09T06:55:09.109Z,0.50
2022-12-09T06:58:10.743Z,0.50
2022-12-09T07:01:26.096Z,0.50
2022-12-09T07:04:27.983Z,0.40
2022-12-09T07:07:29.306Z,0.40
2022-12-09T07:10:30.826Z,0.40
2022-12-09T07:13:32.557Z,0.40
2022-12-09T07:16:35.308Z,0.40
2022-12-09T07:19:36.341Z,0.40
2022-12-09T07:22:37.988Z,0.40
2022-12-09T07:25:39.576Z,0.40
2022-12-09T07:28:42.733Z,0.40
2022-12-09T07:31:45.311Z,0.30
2022-12-09T07:34:46.440Z,0.40
2022-12-09T07:37:47.552Z,0.40
2022-12-09T07:40:49.151Z,0.40
2022-12-09T07:43:50.439Z,0.40
2022-12-09T07:46:52.082Z,0.40
2022-12-09T07:49:53.519Z,0.40
2022-12-09T07:52:54.328Z,0.40
2022-12-09T07:55:56.659Z,0.40
2022-12-09T07:58:58.777Z,0.40
2022-12-09T08:02:05.707Z,0.40
2022-12-09T08:05:08.993Z,0.40
2022-12-09T08:08:10.940Z,0.40
2022-12-09T08:11:18.864Z,0.50
2022-12-09T08:14:21.017Z,0.50
2022-12-09T08:17:22.247Z,0.50
2022-12-09T08:20:28.768Z,0.60
2022-12-09T08:23:30.554Z,0.60
2022-12-09T08:26:32.774Z,0.60
2022-12-09T08:29:34.392Z,0.70
2022-12-09T08:32:35.997Z,0.70
2022-12-09T08:35:38.740Z,0.80
2022-12-09T08:38:40.111Z,0.80
2022-12-09T08:41:43.857Z,0.80
2022-12-09T08:44:45.333Z,0.80
2022-12-09T08:47:46.817Z,0.70
2022-12-09T08:50:48.138Z,0.70
2022-12-09T08:53:49.444Z,0.70
2022-12-09T08:56:55.258Z,0.70
2022-12-09T08:59:56.488Z,0.70
2022-12-09T09:02:57.409Z,0.70
2022-12-09T09:06:10.721Z,0.70
2022-12-09T09:09:14.247Z,0.70
2022-12-09T09:12:15.448Z,0.70
2022-12-09T09:15:17.583Z,0.80
2022-12-09T09:18:18.999Z,0.80
2022-12-09T09:21:24.975Z,0.80
2022-12-09T09:24:26.810Z,0.80
2022-12-09T09:27:28.373Z,0.80
2022-12-09T09:30:29.879Z,0.90
2022-12-09T09:33:31.553Z,0.90
2022-12-09T09:36:33.424Z,0.90
2022-12-09T09:39:34.794Z,0.90
2022-12-09T09:42:47.954Z,1.00
2022-12-09T09:45:51.569Z,1.00
2022-12-09T09:48:53.957Z,1.00
2022-12-09T09:51:57.019Z,1.00
2022-12-09T09:54:58.694Z,1.00
2022-12-09T09:58:20.603Z,1.10
2022-12-09T10:01:26.864Z,1.10
2022-12-09T10:04:33.772Z,1.10
2022-12-09T10:07:43.825Z,1.10
2022-12-09T10:11:27.052Z,1.20
2022-12-09T10:14:34.209Z,1.20
2022-12-09T10:18:09.570Z,1.20
2022-12-09T10:21:21.011Z,1.20
2022-12-09T10:24:39.180Z,1.20
2022-12-09T10:27:55.323Z,1.20
2022-12-09T10:30:57.707Z,1.10
2022-12-09T10:33:59.798Z,1.10
2022-12-09T10:37:01.239Z,1.10
2022-12-09T10:40:08.995Z,1.10
2022-12-09T10:43:41.222Z,1.00
2022-12-09T10:46:42.713Z,1.00
2022-12-09T10:49:44.222Z,1.10
2022-12-09T10:52:46.754Z,1.10
2022-12-09T10:55:54.811Z,1.10
2022-12-09T10:59:22.687Z,1.10
2022-12-09T11:02:24.768Z,1.10
2022-12-09T11:05:31.933Z,1.10
2022-12-09T11:08:35.247Z,1.00
2022-12-09T11:11:47.244Z,1.00
2022-12-09T11:14:56.244Z,1.00
2022-12-09T11:18:19.194Z,1.10
2022-12-09T11:21:37.217Z,1.00
2022-12-09T11:24:40.826Z,1.00
2022-12-09T11:27:49.481Z,1.00
2022-12-09T11:34:27.576Z,1.00
2022-12-09T11:37:32.412Z,1.00
2022-12-09T11:40:33.670Z,1.00
2022-12-09T11:43:54.119Z,1.10
2022-12-09T11:47:24.735Z,1.20
2022-12-09T11:50:33.304Z,1.20
2022-12-09T11:53:40.819Z,1.20
2022-12-09T11:56:43.552Z,1.20
2022-12-09T11:59:55.053Z,1.30
2022-12-09T12:03:17.989Z,1.30
2022-12-09T12:06:37.298Z,1.40
2022-12-09T12:09:47.769Z,1.30
2022-12-09T12:13:21.100Z,1.30
2022-12-09T12:17:22.855Z,1.20
2022-12-09T12:20:49.371Z,1.10
2022-12-09T12:24:13.347Z,1.10
2022-12-09T12:28:01.752Z,1.20
2022-12-09T12:31:24.354Z,1.30
2022-12-09T12:34:56.362Z,1.30
2022-12-09T12:38:20.118Z,1.30
2022-12-09T12:41:41.856Z,1.30
2022-12-09T12:45:32.273Z,1.30
2022-12-09T12:48:46.879Z,1.40
2022-12-09T12:52:16.643Z,1.30
2022-12-09T12:56:18.242Z,1.30
2022-12-09T13:00:07.469Z,1.30
2022-12-09T13:03:33.858Z,1.30
2022-12-09T13:07:07.704Z,1.30
2022-12-09T13:10:25.074Z,1.30
2022-12-09T13:13:35.114Z,1.30
2022-12-09T13:16:41.402Z,1.20
2022-12-09T13:19:50.082Z,1.10
2022-12-09T13:23:30.870Z,1.10
2022-12-09T13:26:50.990Z,1.10
2022-12-09T13:30:15.337Z,1.10
2022-12-09T13:33:49.727Z,1.10
2022-12-09T13:36:51.041Z,1.20
2022-12-09T13:39:51.963Z,1.30
2022-12-09T13:43:04.696Z,1.20
2022-12-09T13:46:05.668Z,1.30
2022-12-09T13:49:26.723Z,1.20
2022-12-09T13:52:53.790Z,1.20
2022-12-09T13:56:23.430Z,1.20
2022-12-09T13:59:44.723Z,1.10
2022-12-09T14:03:00.478Z,1.10
2022-12-09T14:06:18.366Z,1.20
2022-12-09T14:09:32.732Z,1.20
2022-12-09T14:12:33.749Z,1.10
2022-12-09T14:15:37.518Z,1.20
2022-12-09T14:18:40.222Z,1.10
2022-12-09T14:21:41.015Z,1.10
2022-12-09T14:24:42.348Z,1.10
2022-12-09T14:28:12.271Z,1.00
2022-12-09T14:31:45.200Z,1.00
2022-12-09T14:34:59.319Z,1.00
2022-12-09T14:38:17.419Z,1.00
2022-12-09T14:41:51.111Z,1.00
2022-12-09T14:45:24.150Z,1.00
2022-12-09T14:48:31.255Z,1.00
2022-12-09T14:51:49.481Z,1.00
2022-12-09T14:54:54.030Z,0.90
2022-12-09T14:58:00.117Z,0.90
2022-12-09T15:01:06.291Z,0.90
2022-12-09T15:04:07.566Z,0.90
2022-12-09T15:07:25.529Z,0.90
2022-12-09T15:10:36.521Z,0.90
2022-12-09T15:13:40.979Z,0.90
2022-12-09T15:16:47.700Z,0.90
2022-12-09T15:20:12.328Z,0.80
2022-12-09T15:23:27.548Z,0.80
2022-12-09T15:26:33.980Z,0.80
2022-12-09T15:29:34.935Z,0.80
2022-12-09T15:32:39.742Z,0.80
2022-12-09T15:35:43.637Z,0.80
2022-12-09T15:39:29.000Z,0.80
2022-12-09T15:42:35.432Z,0.70
2022-12-09T15:45:42.242Z,0.70
2022-12-09T15:48:51.209Z,0.70
2022-12-09T15:51:56.335Z,0.70
2022-12-09T15:55:00.247Z,0.70
2022-12-09T15:58:06.235Z,0.60
2022-12-09T16:01:07.758Z,0.60
2022-12-09T16:04:10.131Z,0.60
2022-12-09T16:07:14.008Z,0.60
2022-12-09T16:10:17.581Z,0.60
2022-12-09T16:13:21.482Z,0.60
2022-12-09T16:17:05.469Z,0.60
2022-12-09T16:20:23.903Z,0.60
2022-12-09T16:23:27.018Z,0.60
2022-12-09T16:26:34.935Z,0.60
2022-12-09T16:29:37.228Z,0.60
2022-12-09T16:32:50.673Z,0.60
2022-12-09T16:36:04.895Z,0.60
2022-12-09T16:39:09.087Z,0.60
2022-12-09T16:42:29.151Z,0.60
2022-12-09T16:45:38.035Z,0.60
2022-12-09T16:48:39.172Z,0.60
2022-12-09T16:51:40.608Z,0.60
2022-12-09T16:54:45.658Z,0.60
2022-12-09T16:57:46.692Z,0.60
2022-12-09T17:00:49.234Z,0.60
2022-12-09T17:03:55.010Z,0.60
2022-12-09T17:06:56.601Z,0.60
2022-12-09T17:09:57.536Z,0.60
2022-12-09T17:12:58.814Z,0.60
2022-12-09T17:15:59.850Z,0.60
2022-12-09T17:19:01.067Z,0.60
2022-12-09T17:22:01.958Z,0.60
2022-12-09T17:25:04.329Z,0.60
2022-12-09T17:28:06.794Z,0.60
2022-12-09T17:31:11.009Z,0.60
2022-12-09T17:34:11.984Z,0.60
2022-12-09T17:37:12.897Z,0.60
2022-12-09T17:40:13.931Z,0.70
2022-12-09T17:43:15.058Z,0.70
2022-12-09T17:46:16.488Z,0.70
2022-12-09T17:49:19.574Z,0.70
2022-12-09T17:52:20.439Z,0.70
2022-12-09T17:55:22.101Z,0.70
2022-12-09T17:58:23.186Z,0.60
2022-12-09T18:01:25.690Z,0.70
2022-12-09T18:04:27.045Z,0.60
2022-12-09T18:07:28.106Z,0.50
2022-12-09T18:10:29.015Z,0.50
2022-12-09T18:13:30.307Z,0.60
2022-12-09T18:16:31.855Z,0.60
2022-12-09T18:19:35.359Z,0.60
2022-12-09T18:22:36.392Z,0.60
2022-12-09T18:25:41.595Z,0.60
2022-12-09T18:28:43.672Z,0.60
2022-12-09T18:31:45.886Z,0.60
2022-12-09T18:34:46.950Z,0.60
2022-12-09T18:37:48.091Z,0.60
2022-12-09T18:41:04.178Z,0.60
2022-12-09T18:44:07.955Z,0.60
2022-12-09T18:47:08.841Z,0.60
2022-12-09T18:50:10.973Z,0.50
2022-12-09T18:53:11.950Z,0.50
2022-12-09T18:56:13.951Z,0.50
2022-12-09T18:59:15.221Z,0.50
2022-12-09T19:02:17.072Z,0.50
2022-12-09T19:05:17.990Z,0.50
2022-12-09T19:08:18.918Z,0.40
2022-12-09T19:11:26.426Z,0.50
2022-12-09T19:14:27.554Z,0.50
2022-12-09T19:17:28.589Z,0.50
2022-12-09T19:20:29.283Z,0.50
2022-12-09T19:23:36.062Z,0.50
2022-12-09T19:26:37.147Z,0.50
2022-12-09T19:29:39.583Z,0.50
2022-12-09T19:32:56.734Z,0.50
2022-12-09T19:35:57.602Z,0.60
2022-12-09T19:38:58.723Z,0.60
2022-12-09T19:42:01.106Z,0.60
2022-12-09T19:45:04.431Z,0.60
2022-12-09T19:48:07.972Z,0.60
2022-12-09T19:51:16.346Z,0.60
2022-12-09T19:54:18.018Z,0.60
2022-12-09T19:57:19.153Z,0.60
2022-12-09T20:00:20.643Z,0.60
2022-12-09T20:03:21.755Z,0.60
2022-12-09T20:06:23.299Z,0.60
2022-12-09T20:09:25.142Z,0.60
2022-12-09T20:12:26.838Z,0.60
2022-12-09T20:15:27.628Z,0.60
2022-12-09T20:18:28.347Z,0.60
2022-12-09T20:21:32.003Z,0.60
2022-12-09T20:24:32.682Z,0.60
2022-12-09T20:27:34.423Z,0.60
2022-12-09T20:30:35.062Z,0.70
2022-12-09T20:33:37.634Z,0.70
2022-12-09T20:36:42.193Z,0.70
2022-12-09T20:39:43.414Z,0.70
2022-12-09T20:42:44.807Z,0.70
2022-12-09T20:45:46.070Z,0.70
2022-12-09T20:48:48.787Z,0.70
2022-12-09T20:51:49.981Z,0.80
2022-12-09T20:54:51.402Z,0.80
2022-12-09T20:57:52.145Z,0.80
2022-12-09T21:00:52.955Z,0.80
2022-12-09T21:03:56.116Z,0.80
2022-12-09T21:06:57.658Z,0.80
2022-12-09T21:09:58.573Z,0.80
2022-12-09T21:12:59.444Z,0.80
2022-12-09T21:16:22.812Z,0.80
2022-12-09T21:19:27.563Z,0.80
2022-12-09T21:22:31.546Z,0.90
2022-12-09T21:25:32.863Z,0.90
2022-12-09T21:28:36.186Z,0.90
2022-12-09T21:31:40.993Z,0.90
2022-12-09T21:34:41.992Z,0.90
2022-12-09T21:37:43.912Z,0.80
2022-12-09T21:40:45.464Z,0.90
2022-12-09T21:43:47.650Z,0.90
2022-12-09T21:46:48.834Z,0.90
2022-12-09T21:49:49.604Z,0.90
2022-12-09T21:52:50.969Z,0.90
2022-12-09T21:55:53.580Z,0.90
2022-12-09T21:58:58.143Z,0.90
2022-12-09T22:02:00.912Z,0.90
2022-12-09T22:05:02.043Z,0.90
2022-12-09T22:08:04.457Z,0.90
2022-12-09T22:11:19.157Z,0.90
2022-12-09T22:14:19.853Z,0.90
2022-12-09T22:17:21.295Z,0.90
2022-12-09T22:21:00.590Z,0.90
2022-12-09T22:23:44.014Z,0.90
2022-12-09T22:26:45.961Z,0.90
2022-12-09T22:29:47.502Z,0.80
2022-12-09T22:32:50.976Z,0.90
2022-12-09T22:35:52.343Z,0.80
2022-12-09T22:38:54.368Z,0.80
2022-12-09T22:41:55.713Z,0.80
2022-12-09T22:44:57.746Z,0.80
2022-12-09T22:47:58.686Z,0.80
2022-12-09T22:51:13.438Z,0.80
2022-12-09T22:54:15.389Z,0.70
2022-12-09T22:57:16.485Z,0.60
2022-12-09T23:00:17.644Z,0.70
2022-12-09T23:03:18.856Z,0.70
2022-12-09T23:06:19.920Z,0.70
2022-12-09T23:09:25.265Z,0.70
2022-12-09T23:12:26.298Z,0.70
2022-12-09T23:15:27.301Z,0.60
2022-12-09T23:18:31.083Z,0.60
2022-12-09T23:21:38.097Z,0.70
2022-12-09T23:24:39.090Z,0.70
2022-12-09T23:27:39.887Z,0.70
2022-12-09T23:30:41.056Z,0.70
2022-12-09T23:33:45.580Z,0.70
2022-12-09T23:36:46.845Z,0.70
2022-12-09T23:39:48.981Z,0.60
2022-12-09T23:42:53.531Z,0.60
2022-12-09T23:45:54.358Z,0.70
2022-12-09T23:48:56.854Z,0.70
2022-12-09T23:51:57.590Z,0.60
2022-12-09T23:55:03.881Z,0.70
2022-12-09T23:58:05.442Z,0.60
